sensor_id;sensor_type;location;lat;lon;timestamp;P1;durP1;ratioP1;P2;durP2;ratioP2
3083;SDS011;1552;51.952;7.618;2023-12-07T00:01:59;26.10;;;15.73;;
3083;SDS011;1552;51.952;7.618;2023-12-07T00:04:26;31.83;;;14.80;;
3083;SDS011;1552;51.952;7.618;2023-12-07T00:06:53;23.53;;;14.33;;
3083;SDS011;1552;51.952;7.618;2023-12-07T00:09:19;26.83;;;15.87;;
3083;SDS011;1552;51.952;7.618;2023-12-07T00:11:45;26.80;;;15.20;;
3083;SDS011;1552;51.952;7.618;2023-12-07T00:14:12;27.10;;;15.37;;
3083;SDS011;1552;51.952;7.618;2023-12-07T00:16:38;28.27;;;15.43;;
3083;SDS011;1552;51.952;7.618;2023-12-07T00:19:04;29.10;;;15.27;;
3083;SDS011;1552;51.952;7.618;2023-12-07T00:21:32;26.43;;;15.40;;
3083;SDS011;1552;51.952;7.618;2023-12-07T00:23:58;28.07;;;15.83;;
3083;SDS011;1552;51.952;7.618;2023-12-07T00:26:26;24.23;;;14.80;;
3083;SDS011;1552;51.952;7.618;2023-12-07T00:28:52;29.43;;;15.60;;
3083;SDS011;1552;51.952;7.618;2023-12-07T00:31:18;27.27;;;15.27;;
3083;SDS011;1552;51.952;7.618;2023-12-07T00:33:45;24.67;;;14.63;;
3083;SDS011;1552;51.952;7.618;2023-12-07T00:36:12;27.67;;;15.07;;
3083;SDS011;1552;51.952;7.618;2023-12-07T00:38:40;27.60;;;16.17;;
3083;SDS011;1552;51.952;7.618;2023-12-07T00:41:07;26.07;;;14.70;;
3083;SDS011;1552;51.952;7.618;2023-12-07T00:43:33;24.50;;;14.20;;
3083;SDS011;1552;51.952;7.618;2023-12-07T00:46:00;29.40;;;16.17;;
3083;SDS011;1552;51.952;7.618;2023-12-07T00:48:27;29.20;;;15.47;;
3083;SDS011;1552;51.952;7.618;2023-12-07T00:50:53;27.10;;;15.57;;
3083;SDS011;1552;51.952;7.618;2023-12-07T00:53:19;30.23;;;15.80;;
3083;SDS011;1552;51.952;7.618;2023-12-07T00:55:47;26.67;;;15.47;;
3083;SDS011;1552;51.952;7.618;2023-12-07T00:58:14;26.80;;;14.97;;
3083;SDS011;1552;51.952;7.618;2023-12-07T01:00:40;28.40;;;15.37;;
3083;SDS011;1552;51.952;7.618;2023-12-07T01:03:06;24.37;;;14.60;;
3083;SDS011;1552;51.952;7.618;2023-12-07T01:05:33;29.20;;;16.60;;
3083;SDS011;1552;51.952;7.618;2023-12-07T01:07:59;26.03;;;15.40;;
3083;SDS011;1552;51.952;7.618;2023-12-07T01:10:25;28.97;;;15.27;;
3083;SDS011;1552;51.952;7.618;2023-12-07T01:12:53;25.17;;;14.97;;
3083;SDS011;1552;51.952;7.618;2023-12-07T01:15:19;30.63;;;16.30;;
3083;SDS011;1552;51.952;7.618;2023-12-07T01:17:45;25.03;;;16.00;;
3083;SDS011;1552;51.952;7.618;2023-12-07T01:20:12;24.43;;;15.30;;
3083;SDS011;1552;51.952;7.618;2023-12-07T01:22:39;31.10;;;15.07;;
3083;SDS011;1552;51.952;7.618;2023-12-07T01:25:06;31.27;;;16.47;;
3083;SDS011;1552;51.952;7.618;2023-12-07T01:27:32;29.00;;;16.00;;
3083;SDS011;1552;51.952;7.618;2023-12-07T01:30:00;28.47;;;15.03;;
3083;SDS011;1552;51.952;7.618;2023-12-07T01:32:26;29.67;;;15.90;;
3083;SDS011;1552;51.952;7.618;2023-12-07T01:34:52;27.90;;;15.27;;
3083;SDS011;1552;51.952;7.618;2023-12-07T01:37:18;29.43;;;14.97;;
3083;SDS011;1552;51.952;7.618;2023-12-07T01:39:45;27.43;;;15.40;;
3083;SDS011;1552;51.952;7.618;2023-12-07T01:42:11;27.87;;;14.63;;
3083;SDS011;1552;51.952;7.618;2023-12-07T01:44:37;23.00;;;14.83;;
3083;SDS011;1552;51.952;7.618;2023-12-07T01:47:06;23.17;;;15.03;;
3083;SDS011;1552;51.952;7.618;2023-12-07T01:49:35;24.63;;;15.67;;
3083;SDS011;1552;51.952;7.618;2023-12-07T01:52:02;23.73;;;15.10;;
3083;SDS011;1552;51.952;7.618;2023-12-07T01:54:28;29.83;;;16.87;;
3083;SDS011;1552;51.952;7.618;2023-12-07T01:56:55;24.87;;;14.90;;
3083;SDS011;1552;51.952;7.618;2023-12-07T01:59:21;28.17;;;14.93;;
3083;SDS011;1552;51.952;7.618;2023-12-07T02:01:48;24.83;;;14.17;;
3083;SDS011;1552;51.952;7.618;2023-12-07T02:04:15;29.13;;;15.20;;
3083;SDS011;1552;51.952;7.618;2023-12-07T02:06:42;31.60;;;17.10;;
3083;SDS011;1552;51.952;7.618;2023-12-07T02:09:09;24.07;;;14.90;;
3083;SDS011;1552;51.952;7.618;2023-12-07T02:11:35;26.03;;;14.13;;
3083;SDS011;1552;51.952;7.618;2023-12-07T02:14:01;25.40;;;14.83;;
3083;SDS011;1552;51.952;7.618;2023-12-07T02:16:29;32.43;;;15.63;;
3083;SDS011;1552;51.952;7.618;2023-12-07T02:18:59;23.20;;;15.57;;
3083;SDS011;1552;51.952;7.618;2023-12-07T02:21:30;28.77;;;14.90;;
3083;SDS011;1552;51.952;7.618;2023-12-07T02:24:00;28.10;;;15.63;;
3083;SDS011;1552;51.952;7.618;2023-12-07T02:26:31;26.83;;;14.80;;
3083;SDS011;1552;51.952;7.618;2023-12-07T02:28:57;25.13;;;14.83;;
3083;SDS011;1552;51.952;7.618;2023-12-07T02:31:23;25.27;;;15.53;;
3083;SDS011;1552;51.952;7.618;2023-12-07T02:33:50;29.57;;;16.30;;
3083;SDS011;1552;51.952;7.618;2023-12-07T02:36:16;25.23;;;14.73;;
3083;SDS011;1552;51.952;7.618;2023-12-07T02:38:43;30.43;;;16.33;;
3083;SDS011;1552;51.952;7.618;2023-12-07T02:41:10;26.37;;;15.03;;
3083;SDS011;1552;51.952;7.618;2023-12-07T02:43:38;28.27;;;14.93;;
3083;SDS011;1552;51.952;7.618;2023-12-07T02:46:05;27.90;;;15.40;;
3083;SDS011;1552;51.952;7.618;2023-12-07T02:48:31;25.70;;;14.67;;
3083;SDS011;1552;51.952;7.618;2023-12-07T02:50:57;27.07;;;13.93;;
3083;SDS011;1552;51.952;7.618;2023-12-07T02:53:24;29.20;;;15.00;;
3083;SDS011;1552;51.952;7.618;2023-12-07T02:55:50;29.60;;;15.77;;
3083;SDS011;1552;51.952;7.618;2023-12-07T02:58:17;29.33;;;15.80;;
3083;SDS011;1552;51.952;7.618;2023-12-07T03:00:44;28.90;;;15.77;;
3083;SDS011;1552;51.952;7.618;2023-12-07T03:03:10;23.77;;;15.50;;
3083;SDS011;1552;51.952;7.618;2023-12-07T03:05:37;29.60;;;15.93;;
3083;SDS011;1552;51.952;7.618;2023-12-07T03:08:03;27.43;;;15.70;;
3083;SDS011;1552;51.952;7.618;2023-12-07T03:10:30;26.33;;;15.60;;
3083;SDS011;1552;51.952;7.618;2023-12-07T03:12:56;28.57;;;16.47;;
3083;SDS011;1552;51.952;7.618;2023-12-07T03:15:22;34.47;;;17.33;;
3083;SDS011;1552;51.952;7.618;2023-12-07T03:17:50;29.83;;;15.83;;
3083;SDS011;1552;51.952;7.618;2023-12-07T03:20:16;25.00;;;15.43;;
3083;SDS011;1552;51.952;7.618;2023-12-07T03:22:43;27.77;;;15.97;;
3083;SDS011;1552;51.952;7.618;2023-12-07T03:25:09;33.13;;;17.50;;
3083;SDS011;1552;51.952;7.618;2023-12-07T03:27:35;28.67;;;16.33;;
3083;SDS011;1552;51.952;7.618;2023-12-07T03:30:02;32.37;;;17.37;;
3083;SDS011;1552;51.952;7.618;2023-12-07T03:32:29;34.67;;;18.00;;
3083;SDS011;1552;51.952;7.618;2023-12-07T03:34:56;32.50;;;18.57;;
3083;SDS011;1552;51.952;7.618;2023-12-07T03:37:22;31.33;;;17.60;;
3083;SDS011;1552;51.952;7.618;2023-12-07T03:39:49;37.37;;;18.00;;
3083;SDS011;1552;51.952;7.618;2023-12-07T03:42:15;30.13;;;16.73;;
3083;SDS011;1552;51.952;7.618;2023-12-07T03:44:41;30.53;;;18.23;;
3083;SDS011;1552;51.952;7.618;2023-12-07T03:47:08;33.23;;;18.87;;
3083;SDS011;1552;51.952;7.618;2023-12-07T03:49:35;42.80;;;19.77;;
3083;SDS011;1552;51.952;7.618;2023-12-07T03:52:04;35.40;;;19.10;;
3083;SDS011;1552;51.952;7.618;2023-12-07T03:54:31;36.20;;;19.93;;
3083;SDS011;1552;51.952;7.618;2023-12-07T03:56:57;35.13;;;19.13;;
3083;SDS011;1552;51.952;7.618;2023-12-07T03:59:24;34.30;;;18.87;;
3083;SDS011;1552;51.952;7.618;2023-12-07T04:01:50;33.90;;;18.57;;
3083;SDS011;1552;51.952;7.618;2023-12-07T04:04:16;44.20;;;19.53;;
3083;SDS011;1552;51.952;7.618;2023-12-07T04:06:42;36.00;;;20.13;;
3083;SDS011;1552;51.952;7.618;2023-12-07T04:09:10;49.60;;;21.03;;
3083;SDS011;1552;51.952;7.618;2023-12-07T04:11:36;34.83;;;19.57;;
3083;SDS011;1552;51.952;7.618;2023-12-07T04:14:02;40.17;;;20.50;;
3083;SDS011;1552;51.952;7.618;2023-12-07T04:16:29;40.77;;;20.63;;
3083;SDS011;1552;51.952;7.618;2023-12-07T04:18:55;94.27;;;24.40;;
3083;SDS011;1552;51.952;7.618;2023-12-07T04:21:21;70.83;;;22.23;;
3083;SDS011;1552;51.952;7.618;2023-12-07T04:23:48;53.60;;;23.07;;
3083;SDS011;1552;51.952;7.618;2023-12-07T04:26:15;45.53;;;20.07;;
3083;SDS011;1552;51.952;7.618;2023-12-07T04:28:42;53.50;;;21.00;;
3083;SDS011;1552;51.952;7.618;2023-12-07T04:31:08;65.07;;;22.07;;
3083;SDS011;1552;51.952;7.618;2023-12-07T04:33:35;99.17;;;25.83;;
3083;SDS011;1552;51.952;7.618;2023-12-07T04:36:01;53.63;;;21.07;;
3083;SDS011;1552;51.952;7.618;2023-12-07T04:38:28;62.33;;;20.87;;
3083;SDS011;1552;51.952;7.618;2023-12-07T04:40:55;80.77;;;22.03;;
3083;SDS011;1552;51.952;7.618;2023-12-07T04:43:23;96.13;;;23.43;;
3083;SDS011;1552;51.952;7.618;2023-12-07T04:45:49;157.83;;;29.33;;
3083;SDS011;1552;51.952;7.618;2023-12-07T04:48:15;38.33;;;19.27;;
3083;SDS011;1552;51.952;7.618;2023-12-07T04:50:41;74.67;;;22.30;;
3083;SDS011;1552;51.952;7.618;2023-12-07T04:53:08;91.83;;;24.07;;
3083;SDS011;1552;51.952;7.618;2023-12-07T04:55:34;119.17;;;25.53;;
3083;SDS011;1552;51.952;7.618;2023-12-07T04:58:01;176.47;;;30.97;;
3083;SDS011;1552;51.952;7.618;2023-12-07T05:00:28;89.43;;;25.03;;
3083;SDS011;1552;51.952;7.618;2023-12-07T05:02:55;151.93;;;27.67;;
3083;SDS011;1552;51.952;7.618;2023-12-07T05:05:21;77.27;;;23.30;;
3083;SDS011;1552;51.952;7.618;2023-12-07T05:07:48;75.10;;;22.67;;
3083;SDS011;1552;51.952;7.618;2023-12-07T05:10:15;103.60;;;25.33;;
3083;SDS011;1552;51.952;7.618;2023-12-07T05:12:41;61.70;;;22.63;;
3083;SDS011;1552;51.952;7.618;2023-12-07T05:15:08;98.97;;;24.47;;
3083;SDS011;1552;51.952;7.618;2023-12-07T05:17:35;86.50;;;22.80;;
3083;SDS011;1552;51.952;7.618;2023-12-07T05:20:01;41.63;;;20.20;;
3083;SDS011;1552;51.952;7.618;2023-12-07T05:22:27;45.97;;;21.40;;
3083;SDS011;1552;51.952;7.618;2023-12-07T05:24:54;113.90;;;24.57;;
3083;SDS011;1552;51.952;7.618;2023-12-07T05:27:20;100.70;;;23.67;;
3083;SDS011;1552;51.952;7.618;2023-12-07T05:29:46;67.57;;;22.07;;
3083;SDS011;1552;51.952;7.618;2023-12-07T05:32:12;154.33;;;31.07;;
3083;SDS011;1552;51.952;7.618;2023-12-07T05:34:40;82.03;;;23.27;;
3083;SDS011;1552;51.952;7.618;2023-12-07T05:37:07;53.00;;;19.90;;
3083;SDS011;1552;51.952;7.618;2023-12-07T05:39:33;52.07;;;21.77;;
3083;SDS011;1552;51.952;7.618;2023-12-07T05:41:59;55.73;;;19.23;;
3083;SDS011;1552;51.952;7.618;2023-12-07T05:44:25;76.30;;;22.07;;
3083;SDS011;1552;51.952;7.618;2023-12-07T05:46:52;42.97;;;19.03;;
3083;SDS011;1552;51.952;7.618;2023-12-07T05:49:18;52.60;;;20.63;;
3083;SDS011;1552;51.952;7.618;2023-12-07T05:51:46;68.65;;;20.75;;
3083;SDS011;1552;51.952;7.618;2023-12-07T05:54:12;48.80;;;18.83;;
3083;SDS011;1552;51.952;7.618;2023-12-07T05:56:38;100.60;;;20.20;;
3083;SDS011;1552;51.952;7.618;2023-12-07T05:59:05;94.17;;;20.80;;
3083;SDS011;1552;51.952;7.618;2023-12-07T06:01:32;71.43;;;19.27;;
3083;SDS011;1552;51.952;7.618;2023-12-07T06:03:58;45.93;;;19.20;;
3083;SDS011;1552;51.952;7.618;2023-12-07T06:06:24;99.57;;;22.40;;
3083;SDS011;1552;51.952;7.618;2023-12-07T06:08:52;43.83;;;17.43;;
3083;SDS011;1552;51.952;7.618;2023-12-07T06:11:18;65.57;;;19.60;;
3083;SDS011;1552;51.952;7.618;2023-12-07T06:13:45;100.90;;;19.60;;
3083;SDS011;1552;51.952;7.618;2023-12-07T06:16:11;75.57;;;19.80;;
3083;SDS011;1552;51.952;7.618;2023-12-07T06:18:38;76.30;;;19.90;;
3083;SDS011;1552;51.952;7.618;2023-12-07T06:21:04;41.67;;;17.07;;
3083;SDS011;1552;51.952;7.618;2023-12-07T06:23:31;74.30;;;19.03;;
3083;SDS011;1552;51.952;7.618;2023-12-07T06:26:00;63.50;;;17.40;;
3083;SDS011;1552;51.952;7.618;2023-12-07T06:28:27;45.90;;;19.47;;
3083;SDS011;1552;51.952;7.618;2023-12-07T06:30:53;63.77;;;20.53;;
3083;SDS011;1552;51.952;7.618;2023-12-07T06:33:19;33.83;;;17.17;;
3083;SDS011;1552;51.952;7.618;2023-12-07T06:35:46;52.90;;;18.93;;
3083;SDS011;1552;51.952;7.618;2023-12-07T06:38:13;49.73;;;16.83;;
3083;SDS011;1552;51.952;7.618;2023-12-07T06:40:39;66.63;;;18.80;;
3083;SDS011;1552;51.952;7.618;2023-12-07T06:43:07;60.03;;;19.23;;
3083;SDS011;1552;51.952;7.618;2023-12-07T06:45:33;56.60;;;18.50;;
3083;SDS011;1552;51.952;7.618;2023-12-07T06:47:59;51.80;;;18.37;;
3083;SDS011;1552;51.952;7.618;2023-12-07T06:50:26;62.17;;;19.83;;
3083;SDS011;1552;51.952;7.618;2023-12-07T06:52:53;51.17;;;19.13;;
3083;SDS011;1552;51.952;7.618;2023-12-07T06:55:19;50.30;;;19.30;;
3083;SDS011;1552;51.952;7.618;2023-12-07T06:57:45;52.07;;;20.63;;
3083;SDS011;1552;51.952;7.618;2023-12-07T07:00:13;40.70;;;18.03;;
3083;SDS011;1552;51.952;7.618;2023-12-07T07:02:40;64.80;;;20.03;;
3083;SDS011;1552;51.952;7.618;2023-12-07T07:05:06;53.67;;;19.47;;
3083;SDS011;1552;51.952;7.618;2023-12-07T07:07:34;54.77;;;18.07;;
3083;SDS011;1552;51.952;7.618;2023-12-07T07:10:00;80.73;;;19.97;;
3083;SDS011;1552;51.952;7.618;2023-12-07T07:12:26;46.77;;;18.47;;
3083;SDS011;1552;51.952;7.618;2023-12-07T07:14:54;59.43;;;20.00;;
3083;SDS011;1552;51.952;7.618;2023-12-07T07:17:22;45.97;;;19.17;;
3083;SDS011;1552;51.952;7.618;2023-12-07T07:19:48;49.67;;;19.93;;
3083;SDS011;1552;51.952;7.618;2023-12-07T07:22:14;41.17;;;17.83;;
3083;SDS011;1552;51.952;7.618;2023-12-07T07:24:41;58.00;;;21.23;;
3083;SDS011;1552;51.952;7.618;2023-12-07T07:27:07;49.27;;;18.13;;
3083;SDS011;1552;51.952;7.618;2023-12-07T07:29:33;44.93;;;20.33;;
3083;SDS011;1552;51.952;7.618;2023-12-07T07:31:59;54.37;;;19.80;;
3083;SDS011;1552;51.952;7.618;2023-12-07T07:34:27;45.67;;;21.53;;
3083;SDS011;1552;51.952;7.618;2023-12-07T07:36:53;52.08;;;22.95;;
3083;SDS011;1552;51.952;7.618;2023-12-07T07:39:20;50.37;;;21.80;;
3083;SDS011;1552;51.952;7.618;2023-12-07T07:41:46;55.33;;;22.23;;
3083;SDS011;1552;51.952;7.618;2023-12-07T07:44:12;52.67;;;21.90;;
3083;SDS011;1552;51.952;7.618;2023-12-07T07:46:40;53.10;;;20.20;;
3083;SDS011;1552;51.952;7.618;2023-12-07T07:49:06;52.83;;;21.83;;
3083;SDS011;1552;51.952;7.618;2023-12-07T07:51:34;52.43;;;21.73;;
3083;SDS011;1552;51.952;7.618;2023-12-07T07:54:00;52.37;;;20.57;;
3083;SDS011;1552;51.952;7.618;2023-12-07T07:56:26;57.63;;;23.47;;
3083;SDS011;1552;51.952;7.618;2023-12-07T07:58:53;55.87;;;22.47;;
3083;SDS011;1552;51.952;7.618;2023-12-07T08:01:19;57.10;;;23.37;;
3083;SDS011;1552;51.952;7.618;2023-12-07T08:03:45;58.13;;;22.33;;
3083;SDS011;1552;51.952;7.618;2023-12-07T08:06:12;53.83;;;22.30;;
3083;SDS011;1552;51.952;7.618;2023-12-07T08:08:39;61.30;;;23.83;;
3083;SDS011;1552;51.952;7.618;2023-12-07T08:11:06;57.20;;;24.87;;
3083;SDS011;1552;51.952;7.618;2023-12-07T08:13:32;55.00;;;22.90;;
3083;SDS011;1552;51.952;7.618;2023-12-07T08:15:58;65.77;;;24.60;;
3083;SDS011;1552;51.952;7.618;2023-12-07T08:18:25;65.67;;;25.13;;
3083;SDS011;1552;51.952;7.618;2023-12-07T08:20:51;64.27;;;25.33;;
3083;SDS011;1552;51.952;7.618;2023-12-07T08:23:18;54.90;;;23.07;;
3083;SDS011;1552;51.952;7.618;2023-12-07T08:25:45;68.43;;;24.23;;
3083;SDS011;1552;51.952;7.618;2023-12-07T08:28:13;75.33;;;26.40;;
3083;SDS011;1552;51.952;7.618;2023-12-07T08:30:39;73.23;;;26.57;;
3083;SDS011;1552;51.952;7.618;2023-12-07T08:33:05;69.00;;;26.47;;
3083;SDS011;1552;51.952;7.618;2023-12-07T08:35:31;51.87;;;22.50;;
3083;SDS011;1552;51.952;7.618;2023-12-07T08:37:58;85.83;;;26.67;;
3083;SDS011;1552;51.952;7.618;2023-12-07T08:40:24;56.33;;;23.83;;
3083;SDS011;1552;51.952;7.618;2023-12-07T08:42:54;73.27;;;26.50;;
3083;SDS011;1552;51.952;7.618;2023-12-07T08:45:20;61.27;;;24.50;;
3083;SDS011;1552;51.952;7.618;2023-12-07T08:47:47;58.43;;;24.20;;
3083;SDS011;1552;51.952;7.618;2023-12-07T08:50:13;62.37;;;25.33;;
3083;SDS011;1552;51.952;7.618;2023-12-07T08:52:39;63.60;;;24.43;;
3083;SDS011;1552;51.952;7.618;2023-12-07T08:55:06;54.47;;;23.30;;
3083;SDS011;1552;51.952;7.618;2023-12-07T08:57:32;52.47;;;21.73;;
3083;SDS011;1552;51.952;7.618;2023-12-07T09:00:00;62.53;;;24.53;;
3083;SDS011;1552;51.952;7.618;2023-12-07T09:02:26;47.20;;;21.33;;
3083;SDS011;1552;51.952;7.618;2023-12-07T09:04:52;47.40;;;20.60;;
3083;SDS011;1552;51.952;7.618;2023-12-07T09:07:19;53.73;;;21.97;;
3083;SDS011;1552;51.952;7.618;2023-12-07T09:09:45;42.40;;;20.77;;
3083;SDS011;1552;51.952;7.618;2023-12-07T09:12:12;45.90;;;20.60;;
3083;SDS011;1552;51.952;7.618;2023-12-07T09:14:38;49.50;;;21.37;;
3083;SDS011;1552;51.952;7.618;2023-12-07T09:17:06;49.50;;;20.70;;
3083;SDS011;1552;51.952;7.618;2023-12-07T09:19:32;50.23;;;21.93;;
3083;SDS011;1552;51.952;7.618;2023-12-07T09:21:59;51.63;;;20.97;;
3083;SDS011;1552;51.952;7.618;2023-12-07T09:24:25;49.23;;;21.50;;
3083;SDS011;1552;51.952;7.618;2023-12-07T09:26:52;46.40;;;20.87;;
3083;SDS011;1552;51.952;7.618;2023-12-07T09:29:18;47.03;;;21.00;;
3083;SDS011;1552;51.952;7.618;2023-12-07T09:31:44;46.23;;;20.10;;
3083;SDS011;1552;51.952;7.618;2023-12-07T09:34:12;44.80;;;21.53;;
3083;SDS011;1552;51.952;7.618;2023-12-07T09:36:42;45.53;;;20.40;;
3083;SDS011;1552;51.952;7.618;2023-12-07T09:39:08;44.63;;;20.77;;
3083;SDS011;1552;51.952;7.618;2023-12-07T09:41:36;44.20;;;22.20;;
3083;SDS011;1552;51.952;7.618;2023-12-07T09:44:02;51.47;;;23.43;;
3083;SDS011;1552;51.952;7.618;2023-12-07T09:46:28;46.80;;;23.00;;
3083;SDS011;1552;51.952;7.618;2023-12-07T09:48:56;56.70;;;22.90;;
3083;SDS011;1552;51.952;7.618;2023-12-07T09:51:23;58.80;;;24.90;;
3083;SDS011;1552;51.952;7.618;2023-12-07T09:53:50;64.23;;;25.53;;
3083;SDS011;1552;51.952;7.618;2023-12-07T09:56:18;59.80;;;25.40;;
3083;SDS011;1552;51.952;7.618;2023-12-07T09:58:44;55.37;;;25.30;;
3083;SDS011;1552;51.952;7.618;2023-12-07T10:01:11;49.90;;;23.70;;
3083;SDS011;1552;51.952;7.618;2023-12-07T10:03:39;52.37;;;24.17;;
3083;SDS011;1552;51.952;7.618;2023-12-07T10:06:06;54.13;;;21.63;;
3083;SDS011;1552;51.952;7.618;2023-12-07T10:08:34;55.17;;;24.07;;
3083;SDS011;1552;51.952;7.618;2023-12-07T10:11:03;56.83;;;23.50;;
3083;SDS011;1552;51.952;7.618;2023-12-07T10:13:30;49.10;;;22.47;;
3083;SDS011;1552;51.952;7.618;2023-12-07T10:16:04;52.63;;;22.70;;
3083;SDS011;1552;51.952;7.618;2023-12-07T10:18:31;54.17;;;23.13;;
3083;SDS011;1552;51.952;7.618;2023-12-07T10:20:57;57.90;;;24.07;;
3083;SDS011;1552;51.952;7.618;2023-12-07T10:23:24;49.83;;;22.60;;
3083;SDS011;1552;51.952;7.618;2023-12-07T10:25:53;51.43;;;22.07;;
3083;SDS011;1552;51.952;7.618;2023-12-07T10:28:20;50.27;;;22.73;;
3083;SDS011;1552;51.952;7.618;2023-12-07T10:30:47;50.57;;;21.97;;
3083;SDS011;1552;51.952;7.618;2023-12-07T10:33:13;51.00;;;23.33;;
3083;SDS011;1552;51.952;7.618;2023-12-07T10:35:39;49.57;;;21.77;;
3083;SDS011;1552;51.952;7.618;2023-12-07T10:38:05;47.70;;;21.03;;
3083;SDS011;1552;51.952;7.618;2023-12-07T10:40:32;58.37;;;23.47;;
3083;SDS011;1552;51.952;7.618;2023-12-07T10:42:59;50.40;;;23.17;;
3083;SDS011;1552;51.952;7.618;2023-12-07T10:45:28;42.00;;;21.10;;
3083;SDS011;1552;51.952;7.618;2023-12-07T10:47:55;48.47;;;22.50;;
3083;SDS011;1552;51.952;7.618;2023-12-07T10:50:24;53.57;;;22.80;;
3083;SDS011;1552;51.952;7.618;2023-12-07T10:52:53;48.47;;;22.43;;
3083;SDS011;1552;51.952;7.618;2023-12-07T10:55:20;48.53;;;23.03;;
3083;SDS011;1552;51.952;7.618;2023-12-07T10:57:48;46.07;;;22.53;;
3083;SDS011;1552;51.952;7.618;2023-12-07T11:00:16;45.43;;;21.63;;
3083;SDS011;1552;51.952;7.618;2023-12-07T11:02:42;44.33;;;20.63;;
3083;SDS011;1552;51.952;7.618;2023-12-07T11:05:10;45.30;;;20.57;;
3083;SDS011;1552;51.952;7.618;2023-12-07T11:07:38;37.43;;;20.47;;
3083;SDS011;1552;51.952;7.618;2023-12-07T11:10:07;41.77;;;20.00;;
3083;SDS011;1552;51.952;7.618;2023-12-07T11:12:39;39.80;;;19.63;;
3083;SDS011;1552;51.952;7.618;2023-12-07T11:15:07;45.53;;;20.20;;
3083;SDS011;1552;51.952;7.618;2023-12-07T11:17:48;43.53;;;20.23;;
3083;SDS011;1552;51.952;7.618;2023-12-07T11:20:18;47.03;;;20.90;;
3083;SDS011;1552;51.952;7.618;2023-12-07T11:22:44;39.27;;;19.50;;
3083;SDS011;1552;51.952;7.618;2023-12-07T11:25:11;41.53;;;19.13;;
3083;SDS011;1552;51.952;7.618;2023-12-07T11:27:37;37.57;;;20.43;;
3083;SDS011;1552;51.952;7.618;2023-12-07T11:30:04;49.03;;;22.03;;
3083;SDS011;1552;51.952;7.618;2023-12-07T11:32:30;38.03;;;19.40;;
3083;SDS011;1552;51.952;7.618;2023-12-07T11:35:01;39.20;;;19.10;;
3083;SDS011;1552;51.952;7.618;2023-12-07T11:37:31;46.33;;;20.60;;
3083;SDS011;1552;51.952;7.618;2023-12-07T11:40:16;39.90;;;19.37;;
3083;SDS011;1552;51.952;7.618;2023-12-07T11:42:43;44.07;;;20.20;;
3083;SDS011;1552;51.952;7.618;2023-12-07T11:45:09;38.57;;;18.87;;
3083;SDS011;1552;51.952;7.618;2023-12-07T11:47:35;34.30;;;17.77;;
3083;SDS011;1552;51.952;7.618;2023-12-07T11:50:03;41.63;;;19.43;;
3083;SDS011;1552;51.952;7.618;2023-12-07T11:52:29;39.23;;;19.80;;
3083;SDS011;1552;51.952;7.618;2023-12-07T11:54:55;47.13;;;20.43;;
3083;SDS011;1552;51.952;7.618;2023-12-07T11:57:23;43.70;;;19.90;;
3083;SDS011;1552;51.952;7.618;2023-12-07T11:59:49;40.50;;;19.10;;
3083;SDS011;1552;51.952;7.618;2023-12-07T12:02:16;37.37;;;18.67;;
3083;SDS011;1552;51.952;7.618;2023-12-07T12:04:42;45.57;;;20.47;;
3083;SDS011;1552;51.952;7.618;2023-12-07T12:07:08;35.43;;;18.87;;
3083;SDS011;1552;51.952;7.618;2023-12-07T12:09:35;43.00;;;20.63;;
3083;SDS011;1552;51.952;7.618;2023-12-07T12:12:02;41.53;;;20.50;;
3083;SDS011;1552;51.952;7.618;2023-12-07T12:14:30;38.60;;;19.80;;
3083;SDS011;1552;51.952;7.618;2023-12-07T12:16:56;42.03;;;19.50;;
3083;SDS011;1552;51.952;7.618;2023-12-07T12:19:22;39.83;;;19.77;;
3083;SDS011;1552;51.952;7.618;2023-12-07T12:21:49;34.07;;;17.97;;
3083;SDS011;1552;51.952;7.618;2023-12-07T12:24:15;41.50;;;19.63;;
3083;SDS011;1552;51.952;7.618;2023-12-07T12:26:42;40.53;;;19.67;;
3083;SDS011;1552;51.952;7.618;2023-12-07T12:29:08;37.07;;;19.87;;
3083;SDS011;1552;51.952;7.618;2023-12-07T12:31:38;39.07;;;19.10;;
3083;SDS011;1552;51.952;7.618;2023-12-07T12:34:05;39.50;;;20.13;;
3083;SDS011;1552;51.952;7.618;2023-12-07T12:36:32;38.60;;;19.13;;
3083;SDS011;1552;51.952;7.618;2023-12-07T12:38:58;40.07;;;19.43;;
3083;SDS011;1552;51.952;7.618;2023-12-07T12:41:27;34.87;;;18.13;;
3083;SDS011;1552;51.952;7.618;2023-12-07T12:43:55;33.67;;;18.17;;
3083;SDS011;1552;51.952;7.618;2023-12-07T12:46:22;36.20;;;18.80;;
3083;SDS011;1552;51.952;7.618;2023-12-07T12:48:55;35.27;;;18.70;;
3083;SDS011;1552;51.952;7.618;2023-12-07T12:51:23;42.93;;;19.00;;
3083;SDS011;1552;51.952;7.618;2023-12-07T12:53:50;42.83;;;20.50;;
3083;SDS011;1552;51.952;7.618;2023-12-07T12:56:16;37.27;;;19.77;;
3083;SDS011;1552;51.952;7.618;2023-12-07T12:58:44;44.33;;;19.07;;
3083;SDS011;1552;51.952;7.618;2023-12-07T13:01:10;42.03;;;20.27;;
3083;SDS011;1552;51.952;7.618;2023-12-07T13:03:36;44.10;;;20.83;;
3083;SDS011;1552;51.952;7.618;2023-12-07T13:06:04;41.23;;;21.53;;
3083;SDS011;1552;51.952;7.618;2023-12-07T13:08:31;41.20;;;20.60;;
3083;SDS011;1552;51.952;7.618;2023-12-07T13:10:58;41.40;;;21.33;;
3083;SDS011;1552;51.952;7.618;2023-12-07T13:13:24;39.17;;;19.97;;
3083;SDS011;1552;51.952;7.618;2023-12-07T13:15:51;41.60;;;20.33;;
3083;SDS011;1552;51.952;7.618;2023-12-07T13:18:17;44.73;;;20.93;;
3083;SDS011;1552;51.952;7.618;2023-12-07T13:20:44;42.10;;;19.27;;
3083;SDS011;1552;51.952;7.618;2023-12-07T13:23:11;42.53;;;19.60;;
3083;SDS011;1552;51.952;7.618;2023-12-07T13:25:38;41.67;;;19.67;;
3083;SDS011;1552;51.952;7.618;2023-12-07T13:28:04;43.10;;;20.53;;
3083;SDS011;1552;51.952;7.618;2023-12-07T13:30:30;38.63;;;18.30;;
3083;SDS011;1552;51.952;7.618;2023-12-07T13:33:00;39.83;;;19.10;;
3083;SDS011;1552;51.952;7.618;2023-12-07T13:35:26;37.43;;;18.60;;
3083;SDS011;1552;51.952;7.618;2023-12-07T13:37:52;38.93;;;19.30;;
3083;SDS011;1552;51.952;7.618;2023-12-07T13:40:20;38.03;;;20.27;;
3083;SDS011;1552;51.952;7.618;2023-12-07T13:42:47;43.30;;;20.57;;
3083;SDS011;1552;51.952;7.618;2023-12-07T13:45:13;42.87;;;20.63;;
3083;SDS011;1552;51.952;7.618;2023-12-07T13:47:39;39.00;;;19.27;;
3083;SDS011;1552;51.952;7.618;2023-12-07T13:50:06;34.90;;;18.00;;
3083;SDS011;1552;51.952;7.618;2023-12-07T13:52:33;36.83;;;19.27;;
3083;SDS011;1552;51.952;7.618;2023-12-07T13:54:59;34.63;;;19.17;;
3083;SDS011;1552;51.952;7.618;2023-12-07T13:57:28;43.67;;;20.73;;
3083;SDS011;1552;51.952;7.618;2023-12-07T13:59:55;39.27;;;19.43;;
3083;SDS011;1552;51.952;7.618;2023-12-07T14:02:21;39.83;;;18.93;;
3083;SDS011;1552;51.952;7.618;2023-12-07T14:04:48;37.57;;;18.70;;
3083;SDS011;1552;51.952;7.618;2023-12-07T14:07:15;41.97;;;19.93;;
3083;SDS011;1552;51.952;7.618;2023-12-07T14:09:43;33.83;;;18.13;;
3083;SDS011;1552;51.952;7.618;2023-12-07T14:12:10;41.63;;;19.17;;
3083;SDS011;1552;51.952;7.618;2023-12-07T14:14:39;38.83;;;19.17;;
3083;SDS011;1552;51.952;7.618;2023-12-07T14:17:05;45.23;;;20.20;;
3083;SDS011;1552;51.952;7.618;2023-12-07T14:19:32;39.60;;;19.20;;
3083;SDS011;1552;51.952;7.618;2023-12-07T14:22:00;39.67;;;19.87;;
3083;SDS011;1552;51.952;7.618;2023-12-07T14:24:26;43.60;;;20.33;;
3083;SDS011;1552;51.952;7.618;2023-12-07T14:26:53;44.07;;;20.83;;
3083;SDS011;1552;51.952;7.618;2023-12-07T14:29:20;36.70;;;18.13;;
3083;SDS011;1552;51.952;7.618;2023-12-07T14:31:48;40.83;;;19.07;;
3083;SDS011;1552;51.952;7.618;2023-12-07T14:34:15;49.73;;;20.83;;
3083;SDS011;1552;51.952;7.618;2023-12-07T14:36:41;37.67;;;19.53;;
3083;SDS011;1552;51.952;7.618;2023-12-07T14:39:09;39.70;;;19.17;;
3083;SDS011;1552;51.952;7.618;2023-12-07T14:41:36;35.87;;;19.17;;
3083;SDS011;1552;51.952;7.618;2023-12-07T14:44:02;43.13;;;20.07;;
3083;SDS011;1552;51.952;7.618;2023-12-07T14:46:28;49.00;;;20.83;;